createdAt,value
2018-05-02T00:00:46.317Z,2.50
2018-05-02T00:03:14.812Z,2.17
2018-05-02T00:05:43.415Z,2.00
2018-05-02T00:08:11.970Z,2.03
2018-05-02T00:10:40.591Z,2.28
2018-05-02T00:13:09.201Z,2.20
2018-05-02T00:15:37.687Z,2.12
2018-05-02T00:18:06.777Z,2.15
2018-05-02T00:20:35.309Z,2.10
2018-05-02T00:23:04.118Z,1.90
2018-05-02T00:25:32.653Z,2.08
2018-05-02T00:28:01.156Z,2.15
2018-05-02T00:30:29.662Z,2.30
2018-05-02T00:32:58.127Z,2.30
2018-05-02T00:35:26.204Z,2.15
2018-05-02T00:37:54.741Z,2.60
2018-05-02T00:40:23.348Z,2.25
2018-05-02T00:42:51.956Z,2.80
2018-05-02T00:45:20.306Z,2.55
2018-05-02T00:47:48.818Z,2.10
2018-05-02T00:50:17.307Z,2.20
2018-05-02T00:52:45.727Z,2.80
2018-05-02T00:55:13.989Z,2.40
2018-05-02T00:57:42.388Z,2.42
2018-05-02T01:00:10.698Z,2.50
2018-05-02T01:02:39.221Z,2.45
2018-05-02T01:05:07.939Z,2.45
2018-05-02T01:07:37.171Z,2.10
2018-05-02T01:10:05.354Z,2.87
2018-05-02T01:12:34.578Z,1.80
2018-05-02T01:15:03.698Z,2.30
2018-05-02T01:17:32.294Z,2.15
2018-05-02T01:20:00.899Z,2.40
2018-05-02T01:22:30.538Z,2.08
2018-05-02T01:24:59.232Z,3.30
2018-05-02T01:27:27.924Z,1.73
2018-05-02T01:29:56.389Z,2.10
2018-05-02T01:32:24.577Z,2.35
2018-05-02T01:34:53.016Z,2.10
2018-05-02T01:37:21.538Z,2.60
2018-05-02T01:39:49.783Z,1.90
2018-05-02T01:42:18.411Z,1.98
2018-05-02T01:44:46.908Z,1.90
2018-05-02T01:47:15.405Z,2.25
2018-05-02T01:49:43.900Z,2.40
2018-05-02T01:52:12.416Z,1.70
2018-05-02T01:54:41.244Z,2.08
2018-05-02T01:57:09.819Z,2.12
2018-05-02T01:59:38.410Z,2.60
2018-05-02T02:02:07.635Z,2.40
2018-05-02T02:04:36.159Z,2.65
2018-05-02T02:07:04.519Z,2.28
2018-05-02T02:09:32.707Z,2.17
2018-05-02T02:12:00.998Z,2.42
2018-05-02T02:14:29.126Z,2.22
2018-05-02T02:16:57.194Z,2.37
2018-05-02T02:19:25.708Z,2.58
2018-05-02T02:21:54.295Z,2.12
2018-05-02T02:24:22.616Z,2.05
2018-05-02T02:26:51.140Z,1.98
2018-05-02T02:29:19.709Z,1.67
2018-05-02T02:31:48.195Z,2.10
2018-05-02T02:34:16.854Z,2.65
2018-05-02T02:36:45.448Z,2.25
2018-05-02T02:39:14.047Z,1.80
2018-05-02T02:41:42.653Z,1.90
2018-05-02T02:44:11.358Z,1.70
2018-05-02T02:46:39.880Z,1.70
2018-05-02T02:49:08.172Z,1.83
2018-05-02T02:51:36.661Z,2.10
2018-05-02T02:54:05.023Z,1.75
2018-05-02T02:56:33.687Z,1.90
2018-05-02T02:59:02.015Z,1.40
2018-05-02T03:01:30.350Z,1.80
2018-05-02T03:03:58.720Z,1.95
2018-05-02T03:06:27.253Z,1.83
2018-05-02T03:08:55.509Z,2.45
2018-05-02T03:11:23.708Z,1.65
2018-05-02T03:13:52.103Z,1.85
2018-05-02T03:16:20.405Z,1.70
2018-05-02T03:18:48.690Z,2.85
2018-05-02T03:21:17.090Z,1.85
2018-05-02T03:23:45.397Z,1.42
2018-05-02T03:26:13.881Z,1.50
2018-05-02T03:28:42.201Z,1.30
2018-05-02T03:31:10.598Z,2.00
2018-05-02T03:33:38.786Z,2.03
2018-05-02T03:36:07.133Z,2.55
2018-05-02T03:38:35.489Z,1.98
2018-05-02T03:41:03.886Z,1.80
2018-05-02T03:43:32.192Z,2.12
2018-05-02T03:46:00.835Z,1.67
2018-05-02T03:48:29.201Z,1.70
2018-05-02T03:50:57.586Z,1.60
2018-05-02T03:53:25.975Z,1.80
2018-05-02T03:55:54.089Z,1.35
2018-05-02T03:58:22.587Z,1.60
2018-05-02T04:00:51.317Z,1.60
2018-05-02T04:03:20.823Z,1.87
2018-05-02T04:05:49.304Z,1.55
2018-05-02T04:08:17.812Z,2.35
2018-05-02T04:10:46.414Z,1.33
2018-05-02T04:13:14.951Z,1.85
2018-05-02T04:15:43.576Z,1.80
2018-05-02T04:18:12.088Z,1.52
2018-05-02T04:20:40.537Z,1.52
2018-05-02T04:23:09.175Z,1.80
2018-05-02T04:25:37.623Z,1.65
2018-05-02T04:28:06.892Z,1.67
2018-05-02T04:30:35.172Z,1.90
2018-05-02T04:33:03.868Z,1.40
2018-05-02T04:35:32.094Z,2.42
2018-05-02T04:38:00.369Z,1.85
2018-05-02T04:40:28.827Z,2.20
2018-05-02T04:42:57.022Z,2.20
2018-05-02T04:45:25.306Z,1.95
2018-05-02T04:47:53.519Z,1.70
2018-05-02T04:50:21.937Z,1.98
2018-05-02T04:52:50.432Z,2.00
2018-05-02T04:55:19.147Z,1.40
2018-05-02T04:57:47.518Z,1.52
2018-05-02T05:00:15.928Z,1.65
2018-05-02T05:02:44.148Z,1.60
2018-05-02T05:05:12.390Z,1.45
2018-05-02T05:07:40.617Z,1.60
2018-05-02T05:10:09.108Z,1.27
2018-05-02T05:12:37.349Z,1.30
2018-05-02T05:15:05.753Z,2.10
2018-05-02T05:17:33.999Z,2.12
2018-05-02T05:20:02.298Z,1.62
2018-05-02T05:22:30.482Z,1.67
2018-05-02T05:24:58.891Z,2.10
2018-05-02T05:27:27.292Z,1.87
2018-05-02T05:29:55.814Z,1.60
2018-05-02T05:32:24.068Z,2.33
2018-05-02T05:34:52.470Z,1.45
2018-05-02T05:37:20.938Z,1.85
2018-05-02T05:39:49.266Z,1.70
2018-05-02T05:42:17.666Z,1.80
2018-05-02T05:44:45.880Z,1.92
2018-05-02T05:47:14.276Z,1.50
2018-05-02T05:49:42.778Z,1.70
2018-05-02T05:52:10.803Z,1.50
2018-05-02T05:54:39.376Z,2.53
2018-05-02T05:57:07.888Z,1.80
2018-05-02T05:59:36.276Z,1.70
2018-05-02T06:02:04.814Z,1.60
2018-05-02T06:04:33.830Z,1.90
2018-05-02T06:07:02.339Z,1.77
2018-05-02T06:09:30.773Z,1.50
2018-05-02T06:11:59.100Z,1.65
2018-05-02T06:14:27.473Z,1.52
2018-05-02T06:16:55.672Z,1.75
2018-05-02T06:19:24.073Z,1.60
2018-05-02T06:21:52.363Z,1.95
2018-05-02T06:24:20.828Z,1.95
2018-05-02T06:26:49.057Z,1.48
2018-05-02T06:29:17.497Z,2.20
2018-05-02T06:31:46.028Z,1.75
2018-05-02T06:34:14.262Z,2.12
2018-05-02T06:36:42.344Z,1.70
2018-05-02T06:39:10.569Z,1.58
2018-05-02T06:41:38.758Z,1.40
2018-05-02T06:44:07.343Z,1.42
2018-05-02T06:46:35.735Z,1.50
2018-05-02T06:49:03.824Z,1.48
2018-05-02T06:51:31.939Z,1.80
2018-05-02T06:54:00.415Z,1.80
2018-05-02T06:56:28.829Z,1.60
2018-05-02T06:58:57.168Z,1.75
2018-05-02T07:01:25.749Z,1.85
2018-05-02T07:03:54.140Z,1.62
2018-05-02T07:06:23.249Z,1.90
2018-05-02T07:08:51.451Z,1.50
2018-05-02T07:11:19.928Z,1.75
2018-05-02T07:13:48.238Z,1.50
2018-05-02T07:16:16.635Z,1.75
2018-05-02T07:18:44.713Z,1.42
2018-05-02T07:21:13.148Z,1.75
2018-05-02T07:23:41.314Z,1.50
2018-05-02T07:26:09.617Z,1.58
2018-05-02T07:28:37.820Z,1.55
2018-05-02T07:31:06.451Z,1.45
2018-05-02T07:33:34.707Z,1.67
2018-05-02T07:36:02.932Z,1.55
2018-05-02T07:38:32.014Z,1.62
2018-05-02T07:41:00.524Z,1.60
2018-05-02T07:43:28.711Z,1.63
2018-05-02T07:45:57.015Z,1.60
2018-05-02T07:48:25.089Z,1.70
2018-05-02T07:50:53.305Z,1.80
2018-05-02T07:53:21.390Z,1.67
2018-05-02T07:55:49.728Z,1.93
2018-05-02T07:58:17.887Z,1.30
2018-05-02T08:00:46.168Z,1.83
2018-05-02T08:03:14.370Z,1.50
2018-05-02T08:05:42.661Z,1.70
2018-05-02T08:08:10.872Z,1.47
2018-05-02T08:10:39.387Z,1.50
2018-05-02T08:13:07.756Z,1.10
2018-05-02T08:15:35.786Z,1.50
2018-05-02T08:18:03.942Z,1.50
2018-05-02T08:20:32.250Z,1.50
2018-05-02T08:23:00.521Z,2.00
2018-05-02T08:25:28.694Z,1.87
2018-05-02T08:27:56.842Z,1.77
2018-05-02T08:30:25.222Z,1.60
2018-05-02T08:32:53.469Z,1.80
2018-05-02T08:35:21.804Z,1.50
2018-05-02T08:37:50.013Z,1.50
2018-05-02T08:40:18.202Z,1.73
2018-05-02T08:42:46.282Z,1.80
2018-05-02T08:45:14.490Z,2.08
2018-05-02T08:47:42.666Z,2.17
2018-05-02T08:50:10.887Z,1.48
2018-05-02T08:52:39.060Z,1.92
2018-05-02T08:55:07.262Z,2.58
2018-05-02T08:57:35.367Z,2.10
2018-05-02T09:00:03.715Z,1.75
2018-05-02T09:02:31.947Z,2.15
2018-05-02T09:05:00.246Z,2.17
2018-05-02T09:07:28.772Z,1.83
2018-05-02T09:09:56.938Z,2.23
2018-05-02T09:12:26.123Z,1.60
2018-05-02T09:14:54.571Z,2.00
2018-05-02T09:17:22.661Z,1.40
2018-05-02T09:19:50.841Z,1.80
2018-05-02T09:22:19.311Z,2.00
2018-05-02T09:24:47.755Z,1.70
2018-05-02T09:27:15.929Z,1.97
2018-05-02T09:29:44.129Z,1.40
2018-05-02T09:32:12.590Z,1.70
2018-05-02T09:34:40.959Z,2.13
2018-05-02T09:37:09.332Z,1.85
2018-05-02T09:39:37.640Z,1.80
2018-05-02T09:42:05.933Z,1.97
2018-05-02T09:44:34.056Z,1.70
2018-05-02T09:47:02.437Z,1.73
2018-05-02T09:49:30.903Z,1.63
2018-05-02T09:51:59.214Z,1.77
2018-05-02T09:54:27.672Z,1.70
2018-05-02T09:56:56.380Z,1.23
2018-05-02T09:59:25.044Z,1.90
2018-05-02T10:01:53.532Z,1.17
2018-05-02T10:04:21.677Z,1.57
2018-05-02T10:06:49.926Z,2.13
2018-05-02T10:09:18.214Z,1.73
2018-05-02T10:11:46.514Z,1.63
2018-05-02T10:14:14.804Z,1.70
2018-05-02T10:16:43.360Z,1.90
2018-05-02T10:19:11.844Z,1.47
2018-05-02T10:21:40.030Z,1.47
2018-05-02T10:24:08.142Z,1.83
2018-05-02T10:26:36.506Z,1.50
2018-05-02T10:29:04.897Z,1.77
2018-05-02T10:31:33.185Z,1.57
2018-05-02T10:34:01.497Z,2.03
2018-05-02T10:36:29.782Z,1.33
2018-05-02T10:38:57.871Z,1.90
2018-05-02T10:41:26.075Z,1.43
2018-05-02T10:43:54.248Z,1.60
2018-05-02T10:46:22.451Z,2.40
2018-05-02T10:48:50.556Z,1.90
2018-05-02T10:51:18.848Z,1.80
2018-05-02T10:53:47.049Z,1.80
2018-05-02T10:56:15.574Z,2.33
2018-05-02T10:58:44.084Z,1.80
2018-05-02T11:01:12.783Z,1.90
2018-05-02T11:03:40.961Z,2.20
2018-05-02T11:06:09.358Z,2.10
2018-05-02T11:08:37.530Z,1.90
2018-05-02T11:11:05.948Z,1.90
2018-05-02T11:13:34.720Z,2.00
2018-05-02T11:16:03.247Z,1.97
2018-05-02T11:18:31.431Z,2.00
2018-05-02T11:20:59.874Z,1.90
2018-05-02T11:23:28.240Z,2.00
2018-05-02T11:25:56.430Z,2.27
2018-05-02T11:28:24.759Z,1.90
2018-05-02T11:30:52.845Z,2.10
2018-05-02T11:33:21.021Z,2.33
2018-05-02T11:35:49.205Z,1.80
2018-05-02T11:38:17.717Z,1.80
2018-05-02T11:40:45.906Z,2.70
2018-05-02T11:43:14.156Z,2.20
2018-05-02T11:45:42.386Z,1.67
2018-05-02T11:48:10.785Z,2.20
2018-05-02T11:50:38.896Z,1.73
2018-05-02T11:53:07.329Z,2.30
2018-05-02T11:55:35.903Z,2.10
2018-05-02T11:58:04.395Z,2.37
2018-05-02T12:00:32.469Z,2.30
2018-05-02T12:03:00.914Z,2.27
2018-05-02T12:05:29.562Z,2.40
2018-05-02T12:07:57.793Z,2.60
2018-05-02T12:10:26.254Z,2.50
2018-05-02T12:12:54.597Z,2.20
2018-05-02T12:15:22.763Z,2.27
2018-05-02T12:17:50.962Z,2.17
2018-05-02T12:20:19.118Z,2.13
2018-05-02T12:22:47.241Z,2.13
2018-05-02T12:25:15.355Z,2.23
2018-05-02T12:27:43.730Z,2.30
2018-05-02T12:30:12.312Z,2.03
2018-05-02T12:32:40.551Z,2.63
2018-05-02T12:35:08.724Z,2.30
2018-05-02T12:37:36.936Z,2.20
2018-05-02T12:40:05.223Z,2.70
2018-05-02T12:42:33.530Z,2.20
2018-05-02T12:45:02.227Z,2.07
2018-05-02T12:47:30.423Z,2.83
2018-05-02T12:49:58.728Z,2.43
2018-05-02T12:52:27.122Z,2.53
2018-05-02T12:54:55.487Z,2.43
2018-05-02T12:57:23.702Z,2.30
2018-05-02T12:59:51.810Z,2.50
2018-05-02T13:02:20.017Z,2.57
2018-05-02T13:04:48.177Z,2.17
2018-05-02T13:07:16.374Z,2.37
2018-05-02T13:09:44.492Z,2.63
2018-05-02T13:12:12.791Z,2.67
2018-05-02T13:14:41.171Z,2.10
2018-05-02T13:17:09.271Z,2.03
2018-05-02T13:19:37.576Z,2.93
2018-05-02T13:22:05.768Z,2.97
2018-05-02T13:24:34.067Z,2.60
2018-05-02T13:27:02.374Z,2.60
2018-05-02T13:29:30.968Z,3.20
2018-05-02T13:31:59.160Z,2.80
2018-05-02T13:34:27.552Z,2.60
2018-05-02T13:36:55.747Z,2.10
2018-05-02T13:39:24.014Z,2.83
2018-05-02T13:41:53.377Z,2.70
2018-05-02T13:44:21.655Z,2.90
2018-05-02T13:46:50.522Z,2.30
2018-05-02T13:49:19.943Z,2.60
2018-05-02T13:51:48.400Z,2.87
2018-05-02T13:54:16.771Z,3.10
2018-05-02T13:56:44.975Z,2.80
2018-05-02T13:59:13.172Z,2.90
2018-05-02T14:01:41.369Z,2.80
2018-05-02T14:04:09.568Z,2.70
2018-05-02T14:06:37.866Z,2.90
2018-05-02T14:09:09.432Z,3.23
2018-05-02T14:11:37.411Z,3.27
2018-05-02T14:14:05.724Z,3.03
2018-05-02T14:16:34.016Z,3.13
2018-05-02T14:19:02.337Z,3.00
2018-05-02T14:21:30.949Z,3.90
2018-05-02T14:23:59.313Z,2.90
2018-05-02T14:26:27.407Z,3.30
2018-05-02T14:28:55.603Z,3.30
2018-05-02T14:31:24.017Z,3.30
2018-05-02T14:33:52.433Z,3.50
2018-05-02T14:36:20.604Z,2.80
2018-05-02T14:38:48.879Z,3.40
2018-05-02T14:41:17.377Z,3.70
2018-05-02T14:43:46.045Z,3.90
2018-05-02T14:46:14.186Z,3.47
2018-05-02T14:48:42.595Z,3.90
2018-05-02T14:51:10.867Z,3.27
2018-05-02T14:53:39.104Z,4.00
2018-05-02T14:56:07.572Z,3.30
2018-05-02T14:58:35.999Z,3.20
2018-05-02T15:01:05.241Z,4.17
2018-05-02T15:03:33.595Z,3.27
2018-05-02T15:06:02.417Z,3.90
2018-05-02T15:08:30.711Z,3.00
2018-05-02T15:10:59.205Z,3.00
2018-05-02T15:13:27.637Z,3.70
2018-05-02T15:15:56.158Z,3.67
2018-05-02T15:18:24.507Z,3.20
2018-05-02T15:20:53.204Z,3.93
2018-05-02T15:23:21.525Z,3.67
2018-05-02T15:25:49.757Z,3.40
2018-05-02T15:28:18.949Z,3.60
2018-05-02T15:30:47.408Z,3.70
2018-05-02T15:33:15.732Z,3.80
2018-05-02T15:35:44.111Z,2.97
2018-05-02T15:38:12.553Z,3.27
2018-05-02T15:40:41.025Z,2.97
2018-05-02T15:43:09.765Z,3.30
2018-05-02T15:45:42.371Z,3.07
2018-05-02T15:48:10.720Z,3.60
2018-05-02T15:50:39.319Z,3.40
2018-05-02T15:53:07.414Z,3.73
2018-05-02T15:55:35.601Z,3.70
2018-05-02T15:58:03.717Z,3.83
2018-05-02T16:00:32.017Z,3.27
2018-05-02T16:03:00.405Z,3.60
2018-05-02T16:05:28.684Z,4.03
2018-05-02T16:07:56.897Z,3.30
2018-05-02T16:10:25.091Z,3.30
2018-05-02T16:12:53.274Z,3.63
2018-05-02T16:15:21.576Z,3.60
2018-05-02T16:17:50.226Z,2.80
2018-05-02T16:20:18.570Z,3.40
2018-05-02T16:22:46.971Z,4.70
2018-05-02T16:25:15.295Z,3.67
2018-05-02T16:27:43.629Z,4.00
2018-05-02T16:30:11.857Z,4.90
2018-05-02T16:32:39.975Z,3.70
2018-05-02T16:35:08.143Z,4.07
2018-05-02T16:37:36.569Z,4.40
2018-05-02T16:40:04.839Z,3.60
2018-05-02T16:42:33.270Z,4.03
2018-05-02T16:45:01.716Z,3.67
2018-05-02T16:47:29.835Z,3.57
2018-05-02T16:49:58.037Z,3.20
2018-05-02T16:52:26.312Z,3.47
2018-05-02T16:54:54.521Z,3.33
2018-05-02T16:57:23.895Z,4.30
2018-05-02T16:59:52.363Z,3.30
2018-05-02T17:02:20.737Z,3.60
2018-05-02T17:04:48.917Z,3.37
2018-05-02T17:07:17.119Z,3.50
2018-05-02T17:09:45.409Z,3.03
2018-05-02T17:12:13.560Z,3.70
2018-05-02T17:14:41.934Z,3.27
2018-05-02T17:17:10.210Z,3.23
2018-05-02T17:19:38.819Z,3.17
2018-05-02T17:22:07.147Z,2.73
2018-05-02T17:24:35.396Z,3.20
2018-05-02T17:27:04.272Z,2.97
2018-05-02T17:29:32.621Z,3.00
2018-05-02T17:32:01.017Z,3.90
2018-05-02T17:34:29.412Z,3.17
2018-05-02T17:36:57.498Z,2.60
2018-05-02T17:39:25.697Z,2.87
2018-05-02T17:41:53.992Z,3.30
2018-05-02T17:44:22.189Z,3.70
2018-05-02T17:46:50.610Z,2.83
2018-05-02T17:49:18.903Z,3.47
2018-05-02T17:51:47.079Z,3.20
2018-05-02T17:54:15.722Z,2.53
2018-05-02T17:56:43.866Z,2.47
2018-05-02T17:59:11.961Z,2.60
2018-05-02T18:01:40.261Z,3.00
2018-05-02T18:04:08.564Z,3.33
2018-05-02T18:06:36.757Z,2.63
2018-05-02T18:09:04.941Z,2.77
2018-05-02T18:11:33.346Z,2.77
2018-05-02T18:14:01.569Z,3.23
2018-05-02T18:16:30.549Z,3.35
2018-05-02T18:18:59.334Z,2.70
2018-05-02T18:21:27.762Z,2.90
2018-05-02T18:23:56.914Z,3.08
2018-05-02T18:26:25.284Z,2.92
2018-05-02T18:28:59.132Z,3.20
2018-05-02T18:31:27.581Z,2.97
2018-05-02T18:33:55.769Z,3.75
2018-05-02T18:36:23.929Z,3.17
2018-05-02T18:38:52.511Z,3.00
2018-05-02T18:41:20.909Z,3.60
2018-05-02T18:43:49.161Z,3.53
2018-05-02T18:46:17.682Z,3.87
2018-05-02T18:48:45.988Z,4.60
2018-05-02T18:51:14.461Z,2.80
2018-05-02T18:53:42.673Z,3.40
2018-05-02T18:56:11.005Z,4.12
2018-05-02T18:58:39.175Z,3.60
2018-05-02T19:01:07.386Z,3.90
2018-05-02T19:03:35.643Z,3.40
2018-05-02T19:06:03.843Z,3.37
2018-05-02T19:08:32.352Z,4.28
2018-05-02T19:11:00.664Z,3.58
2018-05-02T19:13:28.946Z,4.50
2018-05-02T19:15:57.137Z,4.00
2018-05-02T19:18:26.277Z,5.05
2018-05-02T19:20:54.662Z,4.30
2018-05-02T19:23:23.663Z,4.10
2018-05-02T19:25:51.846Z,4.53
2018-05-02T19:28:27.219Z,4.40
2018-05-02T19:30:55.703Z,3.97
2018-05-02T19:33:23.817Z,4.40
2018-05-02T19:35:52.427Z,4.55
2018-05-02T19:38:20.819Z,4.10
2018-05-02T19:40:49.204Z,4.15
2018-05-02T19:43:17.404Z,4.75
2018-05-02T19:45:45.693Z,4.50
2018-05-02T19:48:13.884Z,4.40
2018-05-02T19:50:42.091Z,4.90
2018-05-02T19:53:10.297Z,5.10
2018-05-02T19:55:38.573Z,4.90
2018-05-02T19:58:06.657Z,4.78
2018-05-02T20:00:34.893Z,4.90
2018-05-02T20:03:03.374Z,5.37
2018-05-02T20:05:31.688Z,5.45
2018-05-02T20:08:00.069Z,4.55
2018-05-02T20:10:28.348Z,4.93
2018-05-02T20:12:56.455Z,5.45
2018-05-02T20:15:24.645Z,5.57
2018-05-02T20:17:52.842Z,6.20
2018-05-02T20:20:21.030Z,4.82
2018-05-02T20:22:49.334Z,5.35
2018-05-02T20:25:17.472Z,4.87
2018-05-02T20:27:45.927Z,6.03
2018-05-02T20:30:14.333Z,5.18
2018-05-02T20:32:42.628Z,5.68
2018-05-02T20:35:12.590Z,4.45
2018-05-02T20:37:40.868Z,5.22
2018-05-02T20:40:09.833Z,5.32
2018-05-02T20:42:38.058Z,5.05
2018-05-02T20:45:06.267Z,6.10
2018-05-02T20:47:34.801Z,6.15
2018-05-02T20:50:04.375Z,6.40
2018-05-02T20:52:32.780Z,5.78
2018-05-02T20:55:01.158Z,5.70
2018-05-02T20:57:29.371Z,6.93
2018-05-02T20:59:57.878Z,6.50
2018-05-02T21:02:26.425Z,6.50
2018-05-02T21:04:54.566Z,5.55
2018-05-02T21:07:22.973Z,6.37
2018-05-02T21:09:51.263Z,5.75
2018-05-02T21:12:19.462Z,6.30
2018-05-02T21:14:47.657Z,5.82
2018-05-02T21:17:16.053Z,5.57
2018-05-02T21:19:44.443Z,5.40
2018-05-02T21:22:12.646Z,5.80
2018-05-02T21:24:40.834Z,6.15
2018-05-02T21:27:08.923Z,6.10
2018-05-02T21:29:37.129Z,6.53
2018-05-02T21:32:05.402Z,6.18
2018-05-02T21:34:34.109Z,5.93
2018-05-02T21:37:02.820Z,5.65
2018-05-02T21:39:31.148Z,6.28
2018-05-02T21:42:00.174Z,6.22
2018-05-02T21:44:28.754Z,6.37
2018-05-02T21:46:57.246Z,6.60
2018-05-02T21:49:25.354Z,6.55
2018-05-02T21:51:53.464Z,6.55
2018-05-02T21:54:21.732Z,5.25
2018-05-02T21:56:50.124Z,5.50
2018-05-02T21:59:18.325Z,6.43
2018-05-02T22:01:46.526Z,6.93
2018-05-02T22:04:14.915Z,6.68
2018-05-02T22:06:43.003Z,7.90
2018-05-02T22:09:11.217Z,7.55
2018-05-02T22:11:40.060Z,6.82
2018-05-02T22:14:08.424Z,7.60
2018-05-02T22:16:36.712Z,10.13
2018-05-02T22:19:05.018Z,8.55
2018-05-02T22:21:34.040Z,10.20
2018-05-02T22:24:02.401Z,9.35
2018-05-02T22:26:30.794Z,8.55
2018-05-02T22:28:58.905Z,10.85
2018-05-02T22:31:27.085Z,7.87
2018-05-02T22:33:55.301Z,8.60
2018-05-02T22:36:24.713Z,9.02
2018-05-02T22:38:53.107Z,10.52
2018-05-02T22:41:21.285Z,7.93
2018-05-02T22:43:49.395Z,8.60
2018-05-02T22:46:17.587Z,8.52
2018-05-02T22:48:45.835Z,9.13
2018-05-02T22:51:14.080Z,9.57
2018-05-02T22:53:42.157Z,9.05
2018-05-02T22:56:14.335Z,9.65
2018-05-02T22:58:46.655Z,9.52
2018-05-02T23:01:18.972Z,8.38
2018-05-02T23:03:47.008Z,8.77
2018-05-02T23:06:15.205Z,8.95
2018-05-02T23:08:43.405Z,9.48
2018-05-02T23:11:11.585Z,8.32
2018-05-02T23:13:39.682Z,8.63
2018-05-02T23:16:07.883Z,9.10
2018-05-02T23:18:36.289Z,9.80
2018-05-02T23:21:04.480Z,9.48
2018-05-02T23:23:32.767Z,9.13
2018-05-02T23:26:01.088Z,8.80
2018-05-02T23:28:29.263Z,8.50
2018-05-02T23:30:57.563Z,9.05
2018-05-02T23:33:25.767Z,8.48
2018-05-02T23:35:54.043Z,9.13
2018-05-02T23:38:22.243Z,8.85
2018-05-02T23:40:50.645Z,9.60
2018-05-02T23:43:18.831Z,8.05
2018-05-02T23:45:47.024Z,10.45
2018-05-02T23:48:15.224Z,9.40
2018-05-02T23:50:43.324Z,11.18
2018-05-02T23:53:11.511Z,10.85
2018-05-02T23:55:39.802Z,9.80
2018-05-02T23:58:08.002Z,8.85
